sensor_id;sensor_type;location;lat;lon;timestamp;temperature;humidity
52245;DHT22;55759;51.586;-1.758;2023-10-31T00:00:05;7.40;93.50
52245;DHT22;55759;51.586;-1.758;2023-10-31T00:02:31;7.50;93.50
52245;DHT22;55759;51.586;-1.758;2023-10-31T00:04:57;7.60;93.50
52245;DHT22;55759;51.586;-1.758;2023-10-31T00:07:23;7.70;93.50
52245;DHT22;55759;51.586;-1.758;2023-10-31T00:09:48;7.90;93.50
52245;DHT22;55759;51.586;-1.758;2023-10-31T00:12:14;8.00;93.50
52245;DHT22;55759;51.586;-1.758;2023-10-31T00:14:40;8.10;93.40
52245;DHT22;55759;51.586;-1.758;2023-10-31T00:17:05;8.10;93.40
52245;DHT22;55759;51.586;-1.758;2023-10-31T00:19:31;8.20;93.40
52245;DHT22;55759;51.586;-1.758;2023-10-31T00:21:57;8.30;93.40
52245;DHT22;55759;51.586;-1.758;2023-10-31T00:24:23;8.30;93.30
52245;DHT22;55759;51.586;-1.758;2023-10-31T00:26:48;8.40;93.30
52245;DHT22;55759;51.586;-1.758;2023-10-31T00:29:14;8.50;93.20
52245;DHT22;55759;51.586;-1.758;2023-10-31T00:31:40;8.50;93.20
52245;DHT22;55759;51.586;-1.758;2023-10-31T00:34:07;8.50;93.10
52245;DHT22;55759;51.586;-1.758;2023-10-31T00:36:33;8.60;93.10
52245;DHT22;55759;51.586;-1.758;2023-10-31T00:38:59;8.60;93.10
52245;DHT22;55759;51.586;-1.758;2023-10-31T00:41:25;8.60;93.10
52245;DHT22;55759;51.586;-1.758;2023-10-31T00:43:51;8.70;93.20
52245;DHT22;55759;51.586;-1.758;2023-10-31T00:46:16;8.80;93.20
52245;DHT22;55759;51.586;-1.758;2023-10-31T00:48:42;8.90;93.10
52245;DHT22;55759;51.586;-1.758;2023-10-31T00:51:08;8.90;93.10
52245;DHT22;55759;51.586;-1.758;2023-10-31T00:53:33;9.00;93.10
52245;DHT22;55759;51.586;-1.758;2023-10-31T00:55:59;9.00;93.10
52245;DHT22;55759;51.586;-1.758;2023-10-31T00:58:25;9.10;93.00
52245;DHT22;55759;51.586;-1.758;2023-10-31T01:00:51;9.10;92.90
52245;DHT22;55759;51.586;-1.758;2023-10-31T01:03:16;9.10;92.90
52245;DHT22;55759;51.586;-1.758;2023-10-31T01:05:42;9.10;92.90
52245;DHT22;55759;51.586;-1.758;2023-10-31T01:08:08;9.20;92.80
52245;DHT22;55759;51.586;-1.758;2023-10-31T01:10:34;9.20;92.80
52245;DHT22;55759;51.586;-1.758;2023-10-31T01:12:59;9.30;92.80
52245;DHT22;55759;51.586;-1.758;2023-10-31T01:15:25;9.30;92.80
52245;DHT22;55759;51.586;-1.758;2023-10-31T01:17:51;9.30;92.80
52245;DHT22;55759;51.586;-1.758;2023-10-31T01:20:16;9.30;92.80
52245;DHT22;55759;51.586;-1.758;2023-10-31T01:22:42;9.40;92.80
52245;DHT22;55759;51.586;-1.758;2023-10-31T01:25:08;9.40;92.80
52245;DHT22;55759;51.586;-1.758;2023-10-31T01:27:34;9.40;92.80
52245;DHT22;55759;51.586;-1.758;2023-10-31T01:29:59;9.40;92.80
52245;DHT22;55759;51.586;-1.758;2023-10-31T01:32:25;9.40;92.80
52245;DHT22;55759;51.586;-1.758;2023-10-31T01:34:51;9.40;92.80
52245;DHT22;55759;51.586;-1.758;2023-10-31T01:37:17;9.40;92.80
52245;DHT22;55759;51.586;-1.758;2023-10-31T01:39:47;9.40;92.90
52245;DHT22;55759;51.586;-1.758;2023-10-31T01:42:14;9.40;92.90
52245;DHT22;55759;51.586;-1.758;2023-10-31T01:44:40;9.40;92.90
52245;DHT22;55759;51.586;-1.758;2023-10-31T01:47:06;9.40;92.90
52245;DHT22;55759;51.586;-1.758;2023-10-31T01:49:32;9.40;93.00
52245;DHT22;55759;51.586;-1.758;2023-10-31T01:52:00;9.40;93.00
52245;DHT22;55759;51.586;-1.758;2023-10-31T01:54:26;9.40;93.00
52245;DHT22;55759;51.586;-1.758;2023-10-31T01:56:53;9.50;93.00
52245;DHT22;55759;51.586;-1.758;2023-10-31T01:59:22;9.50;93.00
52245;DHT22;55759;51.586;-1.758;2023-10-31T02:01:48;9.50;93.10
52245;DHT22;55759;51.586;-1.758;2023-10-31T02:04:14;9.50;93.10
52245;DHT22;55759;51.586;-1.758;2023-10-31T02:06:40;9.60;93.20
52245;DHT22;55759;51.586;-1.758;2023-10-31T02:09:06;9.60;93.10
52245;DHT22;55759;51.586;-1.758;2023-10-31T02:11:32;9.60;93.10
52245;DHT22;55759;51.586;-1.758;2023-10-31T02:13:58;9.60;93.10
52245;DHT22;55759;51.586;-1.758;2023-10-31T02:16:23;9.60;93.00
52245;DHT22;55759;51.586;-1.758;2023-10-31T02:18:50;9.60;93.00
52245;DHT22;55759;51.586;-1.758;2023-10-31T02:21:17;9.60;93.10
52245;DHT22;55759;51.586;-1.758;2023-10-31T02:23:58;9.60;93.10
52245;DHT22;55759;51.586;-1.758;2023-10-31T02:26:31;9.60;93.10
52245;DHT22;55759;51.586;-1.758;2023-10-31T02:28:58;9.60;93.10
52245;DHT22;55759;51.586;-1.758;2023-10-31T02:31:23;9.60;93.10
52245;DHT22;55759;51.586;-1.758;2023-10-31T02:33:49;9.70;93.20
52245;DHT22;55759;51.586;-1.758;2023-10-31T02:36:15;9.70;93.20
52245;DHT22;55759;51.586;-1.758;2023-10-31T02:38:40;9.70;93.10
52245;DHT22;55759;51.586;-1.758;2023-10-31T02:41:06;9.70;93.20
52245;DHT22;55759;51.586;-1.758;2023-10-31T02:43:32;9.70;93.20
52245;DHT22;55759;51.586;-1.758;2023-10-31T02:45:58;9.80;93.20
52245;DHT22;55759;51.586;-1.758;2023-10-31T02:48:25;9.80;93.30
52245;DHT22;55759;51.586;-1.758;2023-10-31T02:50:51;9.80;93.30
52245;DHT22;55759;51.586;-1.758;2023-10-31T02:53:20;9.80;93.30
52245;DHT22;55759;51.586;-1.758;2023-10-31T02:55:46;9.80;93.20
52245;DHT22;55759;51.586;-1.758;2023-10-31T02:58:12;9.80;93.20
52245;DHT22;55759;51.586;-1.758;2023-10-31T03:00:38;9.80;93.10
52245;DHT22;55759;51.586;-1.758;2023-10-31T03:03:03;9.80;93.10
52245;DHT22;55759;51.586;-1.758;2023-10-31T03:05:30;9.80;93.10
52245;DHT22;55759;51.586;-1.758;2023-10-31T03:07:55;9.80;93.10
52245;DHT22;55759;51.586;-1.758;2023-10-31T03:10:21;9.90;93.10
52245;DHT22;55759;51.586;-1.758;2023-10-31T03:12:47;9.90;93.10
52245;DHT22;55759;51.586;-1.758;2023-10-31T03:15:13;9.90;93.10
52245;DHT22;55759;51.586;-1.758;2023-10-31T03:17:39;9.90;93.00
52245;DHT22;55759;51.586;-1.758;2023-10-31T03:20:05;9.90;93.00
52245;DHT22;55759;51.586;-1.758;2023-10-31T03:22:31;9.80;93.10
52245;DHT22;55759;51.586;-1.758;2023-10-31T03:24:56;9.80;93.10
52245;DHT22;55759;51.586;-1.758;2023-10-31T03:27:22;9.80;93.10
52245;DHT22;55759;51.586;-1.758;2023-10-31T03:29:48;9.80;93.10
52245;DHT22;55759;51.586;-1.758;2023-10-31T03:32:15;9.80;93.20
52245;DHT22;55759;51.586;-1.758;2023-10-31T03:34:40;9.80;93.30
52245;DHT22;55759;51.586;-1.758;2023-10-31T03:37:06;9.80;93.30
52245;DHT22;55759;51.586;-1.758;2023-10-31T03:39:32;9.90;93.40
52245;DHT22;55759;51.586;-1.758;2023-10-31T03:41:58;9.90;93.30
52245;DHT22;55759;51.586;-1.758;2023-10-31T03:44:23;9.90;93.40
52245;DHT22;55759;51.586;-1.758;2023-10-31T03:46:49;9.90;93.40
52245;DHT22;55759;51.586;-1.758;2023-10-31T03:49:15;9.90;93.40
52245;DHT22;55759;51.586;-1.758;2023-10-31T03:51:40;9.90;93.40
52245;DHT22;55759;51.586;-1.758;2023-10-31T03:54:07;9.90;93.50
52245;DHT22;55759;51.586;-1.758;2023-10-31T03:56:43;10.00;93.50
52245;DHT22;55759;51.586;-1.758;2023-10-31T03:59:09;10.00;93.50
52245;DHT22;55759;51.586;-1.758;2023-10-31T04:01:35;10.00;93.50
52245;DHT22;55759;51.586;-1.758;2023-10-31T04:04:02;10.00;93.40
52245;DHT22;55759;51.586;-1.758;2023-10-31T04:06:28;9.90;93.50
52245;DHT22;55759;51.586;-1.758;2023-10-31T04:08:53;9.90;93.40
52245;DHT22;55759;51.586;-1.758;2023-10-31T04:11:19;9.90;93.40
52245;DHT22;55759;51.586;-1.758;2023-10-31T04:13:45;9.80;93.40
52245;DHT22;55759;51.586;-1.758;2023-10-31T04:16:11;9.80;93.50
52245;DHT22;55759;51.586;-1.758;2023-10-31T04:18:37;9.80;93.50
52245;DHT22;55759;51.586;-1.758;2023-10-31T04:21:03;9.80;93.50
52245;DHT22;55759;51.586;-1.758;2023-10-31T04:23:29;9.70;93.40
52245;DHT22;55759;51.586;-1.758;2023-10-31T04:25:54;9.70;93.50
52245;DHT22;55759;51.586;-1.758;2023-10-31T04:28:20;9.80;93.60
52245;DHT22;55759;51.586;-1.758;2023-10-31T04:30:46;9.80;93.70
52245;DHT22;55759;51.586;-1.758;2023-10-31T04:33:11;9.90;93.70
52245;DHT22;55759;51.586;-1.758;2023-10-31T04:35:37;9.90;93.70
52245;DHT22;55759;51.586;-1.758;2023-10-31T04:38:03;9.90;93.80
52245;DHT22;55759;51.586;-1.758;2023-10-31T04:40:29;10.00;93.80
52245;DHT22;55759;51.586;-1.758;2023-10-31T04:42:54;10.00;93.80
52245;DHT22;55759;51.586;-1.758;2023-10-31T04:45:20;10.00;93.70
52245;DHT22;55759;51.586;-1.758;2023-10-31T04:47:46;9.90;93.70
52245;DHT22;55759;51.586;-1.758;2023-10-31T04:50:12;9.90;93.70
52245;DHT22;55759;51.586;-1.758;2023-10-31T04:52:38;9.80;93.60
52245;DHT22;55759;51.586;-1.758;2023-10-31T04:55:04;9.90;93.70
52245;DHT22;55759;51.586;-1.758;2023-10-31T04:57:30;9.90;93.70
52245;DHT22;55759;51.586;-1.758;2023-10-31T04:59:55;9.90;93.70
52245;DHT22;55759;51.586;-1.758;2023-10-31T05:02:23;9.90;93.80
52245;DHT22;55759;51.586;-1.758;2023-10-31T05:04:49;10.00;93.80
52245;DHT22;55759;51.586;-1.758;2023-10-31T05:07:19;10.00;93.80
52245;DHT22;55759;51.586;-1.758;2023-10-31T05:09:45;10.10;93.80
52245;DHT22;55759;51.586;-1.758;2023-10-31T05:12:10;10.10;93.80
52245;DHT22;55759;51.586;-1.758;2023-10-31T05:14:36;10.10;93.80
52245;DHT22;55759;51.586;-1.758;2023-10-31T05:17:02;10.10;93.80
52245;DHT22;55759;51.586;-1.758;2023-10-31T05:19:28;10.10;93.80
52245;DHT22;55759;51.586;-1.758;2023-10-31T05:21:54;10.10;93.80
52245;DHT22;55759;51.586;-1.758;2023-10-31T05:24:19;10.10;93.70
52245;DHT22;55759;51.586;-1.758;2023-10-31T05:26:46;10.20;93.70
52245;DHT22;55759;51.586;-1.758;2023-10-31T05:29:12;10.20;93.60
52245;DHT22;55759;51.586;-1.758;2023-10-31T05:31:38;10.10;93.50
52245;DHT22;55759;51.586;-1.758;2023-10-31T05:34:04;10.10;93.50
52245;DHT22;55759;51.586;-1.758;2023-10-31T05:36:29;10.10;93.50
52245;DHT22;55759;51.586;-1.758;2023-10-31T05:38:55;10.20;93.60
52245;DHT22;55759;51.586;-1.758;2023-10-31T05:41:21;10.20;93.50
52245;DHT22;55759;51.586;-1.758;2023-10-31T05:43:47;10.10;93.50
52245;DHT22;55759;51.586;-1.758;2023-10-31T05:46:13;10.10;93.60
52245;DHT22;55759;51.586;-1.758;2023-10-31T05:48:41;10.10;93.50
52245;DHT22;55759;51.586;-1.758;2023-10-31T05:51:18;10.10;93.50
52245;DHT22;55759;51.586;-1.758;2023-10-31T05:53:47;10.10;93.50
52245;DHT22;55759;51.586;-1.758;2023-10-31T05:56:14;10.10;93.50
52245;DHT22;55759;51.586;-1.758;2023-10-31T05:58:40;10.10;93.60
52245;DHT22;55759;51.586;-1.758;2023-10-31T06:01:07;10.10;93.60
52245;DHT22;55759;51.586;-1.758;2023-10-31T06:03:33;10.20;93.60
52245;DHT22;55759;51.586;-1.758;2023-10-31T06:05:59;10.20;93.60
52245;DHT22;55759;51.586;-1.758;2023-10-31T06:08:25;10.20;93.70
52245;DHT22;55759;51.586;-1.758;2023-10-31T06:10:55;10.20;93.60
52245;DHT22;55759;51.586;-1.758;2023-10-31T06:13:20;10.20;93.60
52245;DHT22;55759;51.586;-1.758;2023-10-31T06:15:47;10.20;93.60
52245;DHT22;55759;51.586;-1.758;2023-10-31T06:18:13;10.20;93.60
52245;DHT22;55759;51.586;-1.758;2023-10-31T06:20:38;10.20;93.60
52245;DHT22;55759;51.586;-1.758;2023-10-31T06:23:05;10.30;93.60
52245;DHT22;55759;51.586;-1.758;2023-10-31T06:25:31;10.30;93.60
52245;DHT22;55759;51.586;-1.758;2023-10-31T06:27:57;10.30;93.60
52245;DHT22;55759;51.586;-1.758;2023-10-31T06:30:22;10.30;93.60
52245;DHT22;55759;51.586;-1.758;2023-10-31T06:32:50;10.40;93.60
52245;DHT22;55759;51.586;-1.758;2023-10-31T06:35:16;10.30;93.60
52245;DHT22;55759;51.586;-1.758;2023-10-31T06:37:42;10.30;93.60
52245;DHT22;55759;51.586;-1.758;2023-10-31T06:40:08;10.30;93.60
52245;DHT22;55759;51.586;-1.758;2023-10-31T06:42:35;10.30;93.60
52245;DHT22;55759;51.586;-1.758;2023-10-31T06:45:04;10.30;93.60
52245;DHT22;55759;51.586;-1.758;2023-10-31T06:47:30;10.30;93.50
52245;DHT22;55759;51.586;-1.758;2023-10-31T06:49:56;10.30;93.50
52245;DHT22;55759;51.586;-1.758;2023-10-31T06:52:22;10.30;93.50
52245;DHT22;55759;51.586;-1.758;2023-10-31T06:54:47;10.30;93.50
52245;DHT22;55759;51.586;-1.758;2023-10-31T06:57:13;10.30;93.50
52245;DHT22;55759;51.586;-1.758;2023-10-31T06:59:40;10.20;93.40
52245;DHT22;55759;51.586;-1.758;2023-10-31T07:02:06;10.20;93.20
52245;DHT22;55759;51.586;-1.758;2023-10-31T07:04:32;10.10;93.10
52245;DHT22;55759;51.586;-1.758;2023-10-31T07:06:58;10.00;93.10
52245;DHT22;55759;51.586;-1.758;2023-10-31T07:09:25;9.80;93.00
52245;DHT22;55759;51.586;-1.758;2023-10-31T07:11:51;9.80;93.00
52245;DHT22;55759;51.586;-1.758;2023-10-31T07:14:17;9.70;92.90
52245;DHT22;55759;51.586;-1.758;2023-10-31T07:16:43;9.60;93.00
52245;DHT22;55759;51.586;-1.758;2023-10-31T07:19:11;9.50;93.00
52245;DHT22;55759;51.586;-1.758;2023-10-31T07:21:37;9.40;92.90
52245;DHT22;55759;51.586;-1.758;2023-10-31T07:24:03;9.40;93.00
52245;DHT22;55759;51.586;-1.758;2023-10-31T07:26:28;9.30;93.00
52245;DHT22;55759;51.586;-1.758;2023-10-31T07:28:54;9.30;93.00
52245;DHT22;55759;51.586;-1.758;2023-10-31T07:31:20;9.30;93.10
52245;DHT22;55759;51.586;-1.758;2023-10-31T07:33:47;9.20;93.20
52245;DHT22;55759;51.586;-1.758;2023-10-31T07:36:13;9.20;93.20
52245;DHT22;55759;51.586;-1.758;2023-10-31T07:38:38;9.30;93.30
52245;DHT22;55759;51.586;-1.758;2023-10-31T07:41:04;9.20;93.30
52245;DHT22;55759;51.586;-1.758;2023-10-31T07:43:30;9.30;93.40
52245;DHT22;55759;51.586;-1.758;2023-10-31T07:45:56;9.30;93.50
52245;DHT22;55759;51.586;-1.758;2023-10-31T07:48:21;9.30;93.50
52245;DHT22;55759;51.586;-1.758;2023-10-31T07:50:47;9.40;93.60
52245;DHT22;55759;51.586;-1.758;2023-10-31T07:53:13;9.40;93.60
52245;DHT22;55759;51.586;-1.758;2023-10-31T07:55:39;9.40;93.70
52245;DHT22;55759;51.586;-1.758;2023-10-31T07:58:04;9.50;93.70
52245;DHT22;55759;51.586;-1.758;2023-10-31T08:00:30;9.50;93.70
52245;DHT22;55759;51.586;-1.758;2023-10-31T08:02:56;9.50;93.70
52245;DHT22;55759;51.586;-1.758;2023-10-31T08:05:22;9.60;93.70
52245;DHT22;55759;51.586;-1.758;2023-10-31T08:07:48;9.60;93.70
52245;DHT22;55759;51.586;-1.758;2023-10-31T08:10:13;9.60;93.70
52245;DHT22;55759;51.586;-1.758;2023-10-31T08:12:39;9.70;93.80
52245;DHT22;55759;51.586;-1.758;2023-10-31T08:15:09;9.80;93.90
52245;DHT22;55759;51.586;-1.758;2023-10-31T08:17:35;9.90;94.00
52245;DHT22;55759;51.586;-1.758;2023-10-31T08:20:04;10.00;94.10
52245;DHT22;55759;51.586;-1.758;2023-10-31T08:22:30;10.10;94.10
52245;DHT22;55759;51.586;-1.758;2023-10-31T08:24:56;10.20;94.20
52245;DHT22;55759;51.586;-1.758;2023-10-31T08:27:21;10.30;94.20
52245;DHT22;55759;51.586;-1.758;2023-10-31T08:29:47;10.40;94.20
52245;DHT22;55759;51.586;-1.758;2023-10-31T08:32:13;10.60;94.30
52245;DHT22;55759;51.586;-1.758;2023-10-31T08:34:39;10.70;94.30
52245;DHT22;55759;51.586;-1.758;2023-10-31T08:37:04;10.90;94.30
52245;DHT22;55759;51.586;-1.758;2023-10-31T08:39:36;11.00;94.20
52245;DHT22;55759;51.586;-1.758;2023-10-31T08:42:01;11.10;94.20
52245;DHT22;55759;51.586;-1.758;2023-10-31T08:44:30;11.20;94.20
52245;DHT22;55759;51.586;-1.758;2023-10-31T08:46:56;11.20;94.10
52245;DHT22;55759;51.586;-1.758;2023-10-31T08:49:22;11.30;93.90
52245;DHT22;55759;51.586;-1.758;2023-10-31T08:51:47;11.40;93.80
52245;DHT22;55759;51.586;-1.758;2023-10-31T08:54:13;11.40;93.70
52245;DHT22;55759;51.586;-1.758;2023-10-31T08:56:41;11.50;93.60
52245;DHT22;55759;51.586;-1.758;2023-10-31T08:59:07;11.40;93.50
52245;DHT22;55759;51.586;-1.758;2023-10-31T09:01:32;11.40;93.20
52245;DHT22;55759;51.586;-1.758;2023-10-31T09:03:59;11.40;93.10
52245;DHT22;55759;51.586;-1.758;2023-10-31T09:06:25;11.30;93.00
52245;DHT22;55759;51.586;-1.758;2023-10-31T09:08:50;11.30;93.00
52245;DHT22;55759;51.586;-1.758;2023-10-31T09:11:16;11.30;93.00
52245;DHT22;55759;51.586;-1.758;2023-10-31T09:13:42;11.40;93.20
52245;DHT22;55759;51.586;-1.758;2023-10-31T09:16:08;11.60;92.90
52245;DHT22;55759;51.586;-1.758;2023-10-31T09:18:34;11.70;92.70
52245;DHT22;55759;51.586;-1.758;2023-10-31T09:21:00;11.90;92.30
52245;DHT22;55759;51.586;-1.758;2023-10-31T09:23:25;12.10;92.00
52245;DHT22;55759;51.586;-1.758;2023-10-31T09:25:51;12.30;91.50
52245;DHT22;55759;51.586;-1.758;2023-10-31T09:28:17;12.50;91.10
52245;DHT22;55759;51.586;-1.758;2023-10-31T09:30:43;12.70;90.60
52245;DHT22;55759;51.586;-1.758;2023-10-31T09:33:12;12.80;90.20
52245;DHT22;55759;51.586;-1.758;2023-10-31T09:35:38;12.90;89.40
52245;DHT22;55759;51.586;-1.758;2023-10-31T09:38:03;13.00;89.10
52245;DHT22;55759;51.586;-1.758;2023-10-31T09:40:29;13.10;89.20
52245;DHT22;55759;51.586;-1.758;2023-10-31T09:42:55;13.10;88.30
52245;DHT22;55759;51.586;-1.758;2023-10-31T09:45:21;13.10;88.70
52245;DHT22;55759;51.586;-1.758;2023-10-31T09:47:47;13.10;89.10
52245;DHT22;55759;51.586;-1.758;2023-10-31T09:50:13;13.10;88.10
52245;DHT22;55759;51.586;-1.758;2023-10-31T09:52:39;13.30;88.60
52245;DHT22;55759;51.586;-1.758;2023-10-31T09:55:05;13.60;87.70
52245;DHT22;55759;51.586;-1.758;2023-10-31T09:57:32;13.90;87.60
52245;DHT22;55759;51.586;-1.758;2023-10-31T09:59:58;14.10;86.60
52245;DHT22;55759;51.586;-1.758;2023-10-31T10:02:24;14.30;85.00
52245;DHT22;55759;51.586;-1.758;2023-10-31T10:04:50;14.60;85.60
52245;DHT22;55759;51.586;-1.758;2023-10-31T10:07:17;14.80;84.90
52245;DHT22;55759;51.586;-1.758;2023-10-31T10:09:44;15.10;83.70
52245;DHT22;55759;51.586;-1.758;2023-10-31T10:12:12;15.30;82.40
52245;DHT22;55759;51.586;-1.758;2023-10-31T10:14:39;15.40;80.30
52245;DHT22;55759;51.586;-1.758;2023-10-31T10:17:20;15.40;82.10
52245;DHT22;55759;51.586;-1.758;2023-10-31T10:19:46;15.40;81.90
52245;DHT22;55759;51.586;-1.758;2023-10-31T10:22:12;15.20;80.30
52245;DHT22;55759;51.586;-1.758;2023-10-31T10:24:42;15.00;79.90
52245;DHT22;55759;51.586;-1.758;2023-10-31T10:27:08;15.00;80.10
52245;DHT22;55759;51.586;-1.758;2023-10-31T10:29:35;15.10;79.90
52245;DHT22;55759;51.586;-1.758;2023-10-31T10:32:00;15.10;79.70
52245;DHT22;55759;51.586;-1.758;2023-10-31T10:34:26;15.20;79.60
52245;DHT22;55759;51.586;-1.758;2023-10-31T10:36:53;15.20;78.80
52245;DHT22;55759;51.586;-1.758;2023-10-31T10:39:23;15.20;80.50
52245;DHT22;55759;51.586;-1.758;2023-10-31T10:41:53;15.30;78.30
52245;DHT22;55759;51.586;-1.758;2023-10-31T10:44:36;15.40;79.30
52245;DHT22;55759;51.586;-1.758;2023-10-31T10:47:06;15.60;77.90
52245;DHT22;55759;51.586;-1.758;2023-10-31T10:49:36;15.70;77.40
52245;DHT22;55759;51.586;-1.758;2023-10-31T10:52:27;15.60;77.30
52245;DHT22;55759;51.586;-1.758;2023-10-31T10:55:01;15.90;77.30
52245;DHT22;55759;51.586;-1.758;2023-10-31T11:00:02;15.80;76.10
52245;DHT22;55759;51.586;-1.758;2023-10-31T11:02:30;16.10;76.70
52245;DHT22;55759;51.586;-1.758;2023-10-31T11:04:56;16.30;75.00
52245;DHT22;55759;51.586;-1.758;2023-10-31T11:07:22;16.20;74.20
52245;DHT22;55759;51.586;-1.758;2023-10-31T11:09:49;16.10;75.70
52245;DHT22;55759;51.586;-1.758;2023-10-31T11:12:15;16.10;74.70
52245;DHT22;55759;51.586;-1.758;2023-10-31T11:14:42;16.00;75.60
52245;DHT22;55759;51.586;-1.758;2023-10-31T11:17:38;16.20;75.70
52245;DHT22;55759;51.586;-1.758;2023-10-31T11:20:08;16.60;73.80
52245;DHT22;55759;51.586;-1.758;2023-10-31T11:22:45;16.80;74.00
52245;DHT22;55759;51.586;-1.758;2023-10-31T11:25:18;16.90;73.20
52245;DHT22;55759;51.586;-1.758;2023-10-31T11:27:52;16.90;71.80
52245;DHT22;55759;51.586;-1.758;2023-10-31T11:30:28;16.60;71.90
52245;DHT22;55759;51.586;-1.758;2023-10-31T11:33:02;16.50;72.30
52245;DHT22;55759;51.586;-1.758;2023-10-31T11:35:30;16.50;72.90
52245;DHT22;55759;51.586;-1.758;2023-10-31T11:38:07;16.40;72.10
52245;DHT22;55759;51.586;-1.758;2023-10-31T11:40:34;16.20;71.60
52245;DHT22;55759;51.586;-1.758;2023-10-31T11:43:11;16.10;73.20
52245;DHT22;55759;51.586;-1.758;2023-10-31T11:49:49;15.90;74.20
52245;DHT22;55759;51.586;-1.758;2023-10-31T12:03:36;15.70;73.00
52245;DHT22;55759;51.586;-1.758;2023-10-31T14:24:38;13.80;85.50
52245;DHT22;55759;51.586;-1.758;2023-10-31T14:27:06;13.80;85.60
52245;DHT22;55759;51.586;-1.758;2023-10-31T14:29:45;13.70;86.00
52245;DHT22;55759;51.586;-1.758;2023-10-31T14:32:21;13.70;86.50
52245;DHT22;55759;51.586;-1.758;2023-10-31T14:34:49;13.70;86.40
52245;DHT22;55759;51.586;-1.758;2023-10-31T14:37:51;13.70;86.50
52245;DHT22;55759;51.586;-1.758;2023-10-31T14:40:16;13.80;86.80
52245;DHT22;55759;51.586;-1.758;2023-10-31T14:43:04;14.00;87.00
52245;DHT22;55759;51.586;-1.758;2023-10-31T14:45:46;14.00;86.80
52245;DHT22;55759;51.586;-1.758;2023-10-31T14:48:18;14.00;86.90
52245;DHT22;55759;51.586;-1.758;2023-10-31T16:35:35;12.00;89.50
52245;DHT22;55759;51.586;-1.758;2023-10-31T16:47:59;11.80;90.40
52245;DHT22;55759;51.586;-1.758;2023-10-31T16:50:47;11.80;90.60
52245;DHT22;55759;51.586;-1.758;2023-10-31T16:53:14;11.80;90.70
52245;DHT22;55759;51.586;-1.758;2023-10-31T16:55:42;11.70;90.80
52245;DHT22;55759;51.586;-1.758;2023-10-31T16:58:26;11.70;91.00
52245;DHT22;55759;51.586;-1.758;2023-10-31T17:00:54;11.70;91.10
52245;DHT22;55759;51.586;-1.758;2023-10-31T17:04:11;11.70;91.20
52245;DHT22;55759;51.586;-1.758;2023-10-31T17:06:50;11.70;91.30
52245;DHT22;55759;51.586;-1.758;2023-10-31T17:09:18;11.80;91.20
52245;DHT22;55759;51.586;-1.758;2023-10-31T17:12:04;11.80;91.30
52245;DHT22;55759;51.586;-1.758;2023-10-31T17:18:08;11.90;91.30
52245;DHT22;55759;51.586;-1.758;2023-10-31T17:21:13;11.80;91.30
52245;DHT22;55759;51.586;-1.758;2023-10-31T17:27:10;11.80;91.30
52245;DHT22;55759;51.586;-1.758;2023-10-31T17:30:17;11.80;91.30
52245;DHT22;55759;51.586;-1.758;2023-10-31T17:33:20;11.80;91.30
52245;DHT22;55759;51.586;-1.758;2023-10-31T17:42:42;11.90;91.50
52245;DHT22;55759;51.586;-1.758;2023-10-31T17:49:21;11.90;91.40
52245;DHT22;55759;51.586;-1.758;2023-10-31T17:55:40;11.90;91.20
52245;DHT22;55759;51.586;-1.758;2023-10-31T18:12:03;12.00;91.00
52245;DHT22;55759;51.586;-1.758;2023-10-31T18:15:05;12.00;91.00
52245;DHT22;55759;51.586;-1.758;2023-10-31T18:18:10;12.00;90.90
52245;DHT22;55759;51.586;-1.758;2023-10-31T18:20:54;11.90;91.00
52245;DHT22;55759;51.586;-1.758;2023-10-31T18:23:42;11.90;91.10
52245;DHT22;55759;51.586;-1.758;2023-10-31T18:26:42;12.00;91.00
52245;DHT22;55759;51.586;-1.758;2023-10-31T18:29:22;12.10;90.90
52245;DHT22;55759;51.586;-1.758;2023-10-31T18:32:08;12.10;90.60
52245;DHT22;55759;51.586;-1.758;2023-10-31T18:41:48;12.10;90.20
52245;DHT22;55759;51.586;-1.758;2023-10-31T18:44:37;12.10;90.00
52245;DHT22;55759;51.586;-1.758;2023-10-31T18:50:35;12.20;89.50
52245;DHT22;55759;51.586;-1.758;2023-10-31T18:53:09;12.20;89.50
52245;DHT22;55759;51.586;-1.758;2023-10-31T19:02:34;12.20;89.00
52245;DHT22;55759;51.586;-1.758;2023-10-31T19:08:10;12.20;89.10
52245;DHT22;55759;51.586;-1.758;2023-10-31T19:10:37;12.20;89.10
52245;DHT22;55759;51.586;-1.758;2023-10-31T19:13:08;12.10;88.90
52245;DHT22;55759;51.586;-1.758;2023-10-31T19:15:34;12.20;88.90
52245;DHT22;55759;51.586;-1.758;2023-10-31T19:18:02;12.10;88.90
52245;DHT22;55759;51.586;-1.758;2023-10-31T19:20:34;12.10;88.90
52245;DHT22;55759;51.586;-1.758;2023-10-31T19:23:12;12.10;88.70
52245;DHT22;55759;51.586;-1.758;2023-10-31T19:28:27;12.10;88.50
52245;DHT22;55759;51.586;-1.758;2023-10-31T19:30:56;12.10;88.60
52245;DHT22;55759;51.586;-1.758;2023-10-31T19:36:24;12.00;88.40
52245;DHT22;55759;51.586;-1.758;2023-10-31T19:38:50;11.90;88.70
52245;DHT22;55759;51.586;-1.758;2023-10-31T19:41:21;11.90;89.00
52245;DHT22;55759;51.586;-1.758;2023-10-31T19:43:52;11.80;89.20
52245;DHT22;55759;51.586;-1.758;2023-10-31T19:46:19;11.70;89.60
52245;DHT22;55759;51.586;-1.758;2023-10-31T19:48:45;11.70;89.80
52245;DHT22;55759;51.586;-1.758;2023-10-31T19:51:11;11.60;90.00
52245;DHT22;55759;51.586;-1.758;2023-10-31T19:53:44;11.60;90.30
52245;DHT22;55759;51.586;-1.758;2023-10-31T19:56:21;11.60;90.60
52245;DHT22;55759;51.586;-1.758;2023-10-31T19:58:47;11.70;90.70
52245;DHT22;55759;51.586;-1.758;2023-10-31T20:01:13;11.60;90.70
52245;DHT22;55759;51.586;-1.758;2023-10-31T20:03:40;11.60;90.70
52245;DHT22;55759;51.586;-1.758;2023-10-31T20:06:06;11.50;90.70
52245;DHT22;55759;51.586;-1.758;2023-10-31T20:08:34;11.50;91.00
52245;DHT22;55759;51.586;-1.758;2023-10-31T20:11:01;11.40;91.10
52245;DHT22;55759;51.586;-1.758;2023-10-31T20:13:28;11.40;91.30
52245;DHT22;55759;51.586;-1.758;2023-10-31T20:15:54;11.40;91.50
52245;DHT22;55759;51.586;-1.758;2023-10-31T20:18:23;11.40;91.60
52245;DHT22;55759;51.586;-1.758;2023-10-31T20:20:49;11.40;91.70
52245;DHT22;55759;51.586;-1.758;2023-10-31T20:23:18;11.30;91.80
52245;DHT22;55759;51.586;-1.758;2023-10-31T20:25:44;11.30;91.90
52245;DHT22;55759;51.586;-1.758;2023-10-31T20:28:12;11.30;92.00
52245;DHT22;55759;51.586;-1.758;2023-10-31T20:30:40;11.30;92.10
52245;DHT22;55759;51.586;-1.758;2023-10-31T20:33:05;11.30;92.20
52245;DHT22;55759;51.586;-1.758;2023-10-31T20:35:31;11.40;92.40
52245;DHT22;55759;51.586;-1.758;2023-10-31T20:38:00;11.40;92.30
52245;DHT22;55759;51.586;-1.758;2023-10-31T20:40:29;11.30;92.40
52245;DHT22;55759;51.586;-1.758;2023-10-31T20:42:59;11.30;92.40
52245;DHT22;55759;51.586;-1.758;2023-10-31T20:45:24;11.30;92.40
52245;DHT22;55759;51.586;-1.758;2023-10-31T20:47:55;11.20;92.40
52245;DHT22;55759;51.586;-1.758;2023-10-31T20:50:22;11.20;92.60
52245;DHT22;55759;51.586;-1.758;2023-10-31T20:52:48;11.20;92.60
52245;DHT22;55759;51.586;-1.758;2023-10-31T20:55:14;11.20;92.60
52245;DHT22;55759;51.586;-1.758;2023-10-31T20:57:40;11.20;92.60
52245;DHT22;55759;51.586;-1.758;2023-10-31T21:00:08;11.20;92.70
52245;DHT22;55759;51.586;-1.758;2023-10-31T21:02:34;11.20;92.70